sensor_id;sensor_type;location;lat;lon;timestamp;P1;durP1;ratioP1;P2;durP2;ratioP2
11394;SDS011;5753;54.402;10.220;2023-05-14T00:01:14;16.17;;;9.90;;
11394;SDS011;5753;54.402;10.220;2023-05-14T00:03:40;15.50;;;10.32;;
11394;SDS011;5753;54.402;10.220;2023-05-14T00:06:06;11.80;;;10.45;;
11394;SDS011;5753;54.402;10.220;2023-05-14T00:08:34;15.38;;;11.52;;
11394;SDS011;5753;54.402;10.220;2023-05-14T00:11:00;19.60;;;11.40;;
11394;SDS011;5753;54.402;10.220;2023-05-14T00:13:27;15.57;;;10.18;;
11394;SDS011;5753;54.402;10.220;2023-05-14T00:15:53;12.48;;;9.40;;
11394;SDS011;5753;54.402;10.220;2023-05-14T00:18:19;15.88;;;9.75;;
11394;SDS011;5753;54.402;10.220;2023-05-14T00:20:45;16.40;;;10.60;;
11394;SDS011;5753;54.402;10.220;2023-05-14T00:23:11;14.32;;;12.35;;
11394;SDS011;5753;54.402;10.220;2023-05-14T00:25:37;14.30;;;9.88;;
11394;SDS011;5753;54.402;10.220;2023-05-14T00:28:04;26.10;;;11.18;;
11394;SDS011;5753;54.402;10.220;2023-05-14T00:30:30;15.02;;;10.25;;
11394;SDS011;5753;54.402;10.220;2023-05-14T00:32:56;15.38;;;12.15;;
11394;SDS011;5753;54.402;10.220;2023-05-14T00:35:22;11.52;;;9.73;;
11394;SDS011;5753;54.402;10.220;2023-05-14T00:37:48;14.82;;;11.63;;
11394;SDS011;5753;54.402;10.220;2023-05-14T00:40:14;12.15;;;10.40;;
11394;SDS011;5753;54.402;10.220;2023-05-14T00:42:41;10.98;;;9.07;;
11394;SDS011;5753;54.402;10.220;2023-05-14T00:45:07;13.05;;;11.75;;
11394;SDS011;5753;54.402;10.220;2023-05-14T00:47:34;17.95;;;10.93;;
11394;SDS011;5753;54.402;10.220;2023-05-14T00:50:03;13.43;;;11.73;;
11394;SDS011;5753;54.402;10.220;2023-05-14T00:52:30;17.65;;;10.57;;
11394;SDS011;5753;54.402;10.220;2023-05-14T00:54:56;17.17;;;12.13;;
11394;SDS011;5753;54.402;10.220;2023-05-14T00:57:24;15.15;;;10.35;;
11394;SDS011;5753;54.402;10.220;2023-05-14T00:59:51;13.82;;;9.35;;
11394;SDS011;5753;54.402;10.220;2023-05-14T01:02:17;16.15;;;11.80;;
11394;SDS011;5753;54.402;10.220;2023-05-14T01:04:43;11.38;;;9.95;;
11394;SDS011;5753;54.402;10.220;2023-05-14T01:07:20;13.63;;;11.45;;
11394;SDS011;5753;54.402;10.220;2023-05-14T01:10:01;12.30;;;10.88;;
11394;SDS011;5753;54.402;10.220;2023-05-14T01:12:51;13.45;;;11.15;;
11394;SDS011;5753;54.402;10.220;2023-05-14T01:15:30;13.65;;;9.63;;
11394;SDS011;5753;54.402;10.220;2023-05-14T01:18:02;14.55;;;10.68;;
11394;SDS011;5753;54.402;10.220;2023-05-14T01:20:31;15.18;;;10.98;;
11394;SDS011;5753;54.402;10.220;2023-05-14T01:22:57;12.68;;;10.90;;
11394;SDS011;5753;54.402;10.220;2023-05-14T01:25:23;16.00;;;10.70;;
11394;SDS011;5753;54.402;10.220;2023-05-14T01:28:11;10.95;;;9.85;;
11394;SDS011;5753;54.402;10.220;2023-05-14T01:30:45;13.60;;;10.07;;
11394;SDS011;5753;54.402;10.220;2023-05-14T01:33:24;12.68;;;9.63;;
11394;SDS011;5753;54.402;10.220;2023-05-14T01:35:53;14.68;;;10.30;;
11394;SDS011;5753;54.402;10.220;2023-05-14T01:38:20;12.93;;;10.23;;
11394;SDS011;5753;54.402;10.220;2023-05-14T01:40:48;15.20;;;10.98;;
11394;SDS011;5753;54.402;10.220;2023-05-14T01:43:16;19.17;;;11.95;;
11394;SDS011;5753;54.402;10.220;2023-05-14T01:45:44;10.85;;;8.13;;
11394;SDS011;5753;54.402;10.220;2023-05-14T01:48:10;12.73;;;10.20;;
11394;SDS011;5753;54.402;10.220;2023-05-14T01:50:36;14.70;;;9.50;;
11394;SDS011;5753;54.402;10.220;2023-05-14T01:53:02;20.33;;;11.85;;
11394;SDS011;5753;54.402;10.220;2023-05-14T01:55:28;14.00;;;10.35;;
11394;SDS011;5753;54.402;10.220;2023-05-14T01:57:55;14.82;;;10.23;;
11394;SDS011;5753;54.402;10.220;2023-05-14T02:00:21;20.98;;;9.75;;
11394;SDS011;5753;54.402;10.220;2023-05-14T02:02:49;15.93;;;10.05;;
11394;SDS011;5753;54.402;10.220;2023-05-14T02:05:15;13.82;;;11.30;;
11394;SDS011;5753;54.402;10.220;2023-05-14T02:07:41;18.17;;;12.80;;
11394;SDS011;5753;54.402;10.220;2023-05-14T02:10:08;16.13;;;11.52;;
11394;SDS011;5753;54.402;10.220;2023-05-14T02:12:34;17.20;;;10.98;;
11394;SDS011;5753;54.402;10.220;2023-05-14T02:15:01;12.18;;;10.63;;
11394;SDS011;5753;54.402;10.220;2023-05-14T02:17:28;25.38;;;11.75;;
11394;SDS011;5753;54.402;10.220;2023-05-14T02:19:54;16.40;;;11.45;;
11394;SDS011;5753;54.402;10.220;2023-05-14T02:22:20;14.80;;;11.40;;
11394;SDS011;5753;54.402;10.220;2023-05-14T02:24:46;13.52;;;9.65;;
11394;SDS011;5753;54.402;10.220;2023-05-14T02:27:13;12.55;;;11.25;;
11394;SDS011;5753;54.402;10.220;2023-05-14T02:29:39;15.52;;;13.10;;
11394;SDS011;5753;54.402;10.220;2023-05-14T02:32:06;15.73;;;9.65;;
11394;SDS011;5753;54.402;10.220;2023-05-14T02:34:32;11.07;;;9.98;;
11394;SDS011;5753;54.402;10.220;2023-05-14T02:36:58;11.80;;;10.65;;
11394;SDS011;5753;54.402;10.220;2023-05-14T02:39:25;24.02;;;13.88;;
11394;SDS011;5753;54.402;10.220;2023-05-14T02:41:51;12.90;;;10.02;;
11394;SDS011;5753;54.402;10.220;2023-05-14T02:44:17;15.98;;;10.63;;
11394;SDS011;5753;54.402;10.220;2023-05-14T02:46:43;18.23;;;12.48;;
11394;SDS011;5753;54.402;10.220;2023-05-14T02:49:09;18.90;;;12.98;;
11394;SDS011;5753;54.402;10.220;2023-05-14T02:51:35;13.57;;;9.77;;
11394;SDS011;5753;54.402;10.220;2023-05-14T02:54:01;17.30;;;12.77;;
11394;SDS011;5753;54.402;10.220;2023-05-14T02:56:27;18.55;;;11.82;;
11394;SDS011;5753;54.402;10.220;2023-05-14T02:58:53;13.00;;;10.95;;
11394;SDS011;5753;54.402;10.220;2023-05-14T03:01:19;11.68;;;10.35;;
11394;SDS011;5753;54.402;10.220;2023-05-14T03:03:45;13.75;;;9.95;;
11394;SDS011;5753;54.402;10.220;2023-05-14T03:06:11;12.88;;;11.55;;
11394;SDS011;5753;54.402;10.220;2023-05-14T03:08:37;18.25;;;14.55;;
11394;SDS011;5753;54.402;10.220;2023-05-14T03:11:03;15.43;;;12.88;;
11394;SDS011;5753;54.402;10.220;2023-05-14T03:13:30;13.95;;;11.52;;
11394;SDS011;5753;54.402;10.220;2023-05-14T03:15:57;19.02;;;15.77;;
11394;SDS011;5753;54.402;10.220;2023-05-14T03:18:23;19.83;;;12.43;;
11394;SDS011;5753;54.402;10.220;2023-05-14T03:20:49;15.80;;;11.63;;
11394;SDS011;5753;54.402;10.220;2023-05-14T03:23:15;20.65;;;11.85;;
11394;SDS011;5753;54.402;10.220;2023-05-14T03:25:41;20.00;;;13.38;;
11394;SDS011;5753;54.402;10.220;2023-05-14T03:28:07;16.02;;;10.95;;
11394;SDS011;5753;54.402;10.220;2023-05-14T03:30:33;13.85;;;11.15;;
11394;SDS011;5753;54.402;10.220;2023-05-14T03:33:00;22.67;;;14.88;;
11394;SDS011;5753;54.402;10.220;2023-05-14T03:35:26;18.05;;;13.40;;
11394;SDS011;5753;54.402;10.220;2023-05-14T03:37:52;15.75;;;10.02;;
11394;SDS011;5753;54.402;10.220;2023-05-14T03:40:18;15.07;;;12.15;;
11394;SDS011;5753;54.402;10.220;2023-05-14T03:42:45;17.05;;;12.75;;
11394;SDS011;5753;54.402;10.220;2023-05-14T03:45:11;15.48;;;13.02;;
11394;SDS011;5753;54.402;10.220;2023-05-14T03:47:37;15.40;;;11.00;;
11394;SDS011;5753;54.402;10.220;2023-05-14T03:50:03;15.25;;;11.77;;
11394;SDS011;5753;54.402;10.220;2023-05-14T03:52:30;16.60;;;13.77;;
11394;SDS011;5753;54.402;10.220;2023-05-14T03:54:56;17.35;;;13.18;;
11394;SDS011;5753;54.402;10.220;2023-05-14T03:57:22;14.98;;;10.77;;
11394;SDS011;5753;54.402;10.220;2023-05-14T03:59:48;16.42;;;14.02;;
11394;SDS011;5753;54.402;10.220;2023-05-14T04:02:14;13.25;;;12.02;;
11394;SDS011;5753;54.402;10.220;2023-05-14T04:04:40;19.17;;;14.00;;
11394;SDS011;5753;54.402;10.220;2023-05-14T04:07:06;17.17;;;12.48;;
11394;SDS011;5753;54.402;10.220;2023-05-14T04:09:32;22.15;;;12.70;;
11394;SDS011;5753;54.402;10.220;2023-05-14T04:11:59;21.30;;;13.98;;
11394;SDS011;5753;54.402;10.220;2023-05-14T04:14:25;15.95;;;13.23;;
11394;SDS011;5753;54.402;10.220;2023-05-14T04:16:51;14.07;;;12.05;;
11394;SDS011;5753;54.402;10.220;2023-05-14T04:19:17;27.33;;;12.70;;
11394;SDS011;5753;54.402;10.220;2023-05-14T04:21:43;12.88;;;10.55;;
11394;SDS011;5753;54.402;10.220;2023-05-14T04:24:09;16.88;;;12.70;;
11394;SDS011;5753;54.402;10.220;2023-05-14T04:26:35;15.60;;;13.23;;
11394;SDS011;5753;54.402;10.220;2023-05-14T04:29:01;19.48;;;13.02;;
11394;SDS011;5753;54.402;10.220;2023-05-14T04:31:28;21.05;;;12.18;;
11394;SDS011;5753;54.402;10.220;2023-05-14T04:33:54;14.73;;;10.98;;
11394;SDS011;5753;54.402;10.220;2023-05-14T04:36:20;15.23;;;12.30;;
11394;SDS011;5753;54.402;10.220;2023-05-14T04:38:46;14.32;;;11.35;;
11394;SDS011;5753;54.402;10.220;2023-05-14T04:41:12;15.98;;;13.43;;
11394;SDS011;5753;54.402;10.220;2023-05-14T04:43:38;17.75;;;10.32;;
11394;SDS011;5753;54.402;10.220;2023-05-14T04:46:04;13.43;;;10.95;;
11394;SDS011;5753;54.402;10.220;2023-05-14T04:48:30;19.13;;;10.05;;
11394;SDS011;5753;54.402;10.220;2023-05-14T04:50:57;17.00;;;13.20;;
11394;SDS011;5753;54.402;10.220;2023-05-14T04:53:23;13.93;;;12.38;;
11394;SDS011;5753;54.402;10.220;2023-05-14T04:55:49;14.38;;;11.95;;
11394;SDS011;5753;54.402;10.220;2023-05-14T04:58:15;11.38;;;9.52;;
11394;SDS011;5753;54.402;10.220;2023-05-14T05:00:41;18.70;;;10.63;;
11394;SDS011;5753;54.402;10.220;2023-05-14T05:03:08;10.75;;;9.75;;
11394;SDS011;5753;54.402;10.220;2023-05-14T05:05:34;20.23;;;11.77;;
11394;SDS011;5753;54.402;10.220;2023-05-14T05:08:00;14.00;;;11.43;;
11394;SDS011;5753;54.402;10.220;2023-05-14T05:10:26;11.43;;;10.02;;
11394;SDS011;5753;54.402;10.220;2023-05-14T05:12:52;16.33;;;9.07;;
11394;SDS011;5753;54.402;10.220;2023-05-14T05:15:18;15.60;;;10.23;;
11394;SDS011;5753;54.402;10.220;2023-05-14T05:17:45;14.20;;;11.02;;
11394;SDS011;5753;54.402;10.220;2023-05-14T05:20:11;8.85;;;7.70;;
11394;SDS011;5753;54.402;10.220;2023-05-14T05:22:37;14.32;;;10.80;;
11394;SDS011;5753;54.402;10.220;2023-05-14T05:25:04;20.10;;;13.60;;
11394;SDS011;5753;54.402;10.220;2023-05-14T05:27:30;13.43;;;10.07;;
11394;SDS011;5753;54.402;10.220;2023-05-14T05:29:57;11.57;;;10.43;;
11394;SDS011;5753;54.402;10.220;2023-05-14T05:32:25;11.60;;;9.48;;
11394;SDS011;5753;54.402;10.220;2023-05-14T05:34:52;14.90;;;10.57;;
11394;SDS011;5753;54.402;10.220;2023-05-14T05:37:18;12.20;;;9.73;;
11394;SDS011;5753;54.402;10.220;2023-05-14T05:39:44;10.82;;;8.98;;
11394;SDS011;5753;54.402;10.220;2023-05-14T05:42:12;14.23;;;9.88;;
11394;SDS011;5753;54.402;10.220;2023-05-14T05:44:38;11.40;;;8.82;;
11394;SDS011;5753;54.402;10.220;2023-05-14T05:47:04;10.85;;;9.48;;
11394;SDS011;5753;54.402;10.220;2023-05-14T05:49:30;9.63;;;8.27;;
11394;SDS011;5753;54.402;10.220;2023-05-14T05:51:57;9.82;;;8.43;;
11394;SDS011;5753;54.402;10.220;2023-05-14T05:54:23;13.82;;;8.23;;
11394;SDS011;5753;54.402;10.220;2023-05-14T05:56:49;10.82;;;9.15;;
11394;SDS011;5753;54.402;10.220;2023-05-14T05:59:16;14.75;;;10.13;;
11394;SDS011;5753;54.402;10.220;2023-05-14T06:01:42;13.02;;;9.40;;
11394;SDS011;5753;54.402;10.220;2023-05-14T06:04:08;14.73;;;9.27;;
11394;SDS011;5753;54.402;10.220;2023-05-14T06:06:34;11.18;;;10.02;;
11394;SDS011;5753;54.402;10.220;2023-05-14T06:09:00;10.45;;;9.30;;
11394;SDS011;5753;54.402;10.220;2023-05-14T06:11:26;8.05;;;7.22;;
11394;SDS011;5753;54.402;10.220;2023-05-14T06:13:52;11.15;;;8.80;;
11394;SDS011;5753;54.402;10.220;2023-05-14T06:16:19;12.50;;;10.18;;
11394;SDS011;5753;54.402;10.220;2023-05-14T06:18:45;7.05;;;6.32;;
11394;SDS011;5753;54.402;10.220;2023-05-14T06:21:11;13.85;;;9.63;;
11394;SDS011;5753;54.402;10.220;2023-05-14T06:23:37;9.43;;;7.55;;
11394;SDS011;5753;54.402;10.220;2023-05-14T06:26:03;10.73;;;8.50;;
11394;SDS011;5753;54.402;10.220;2023-05-14T06:28:29;10.68;;;9.57;;
11394;SDS011;5753;54.402;10.220;2023-05-14T06:30:55;12.88;;;10.35;;
11394;SDS011;5753;54.402;10.220;2023-05-14T06:33:21;12.55;;;9.90;;
11394;SDS011;5753;54.402;10.220;2023-05-14T06:35:54;10.52;;;9.43;;
11394;SDS011;5753;54.402;10.220;2023-05-14T06:38:28;13.40;;;10.45;;
11394;SDS011;5753;54.402;10.220;2023-05-14T06:40:54;10.10;;;9.07;;
11394;SDS011;5753;54.402;10.220;2023-05-14T06:43:20;9.65;;;8.68;;
11394;SDS011;5753;54.402;10.220;2023-05-14T06:45:50;11.30;;;10.10;;
11394;SDS011;5753;54.402;10.220;2023-05-14T06:48:16;12.98;;;10.50;;
11394;SDS011;5753;54.402;10.220;2023-05-14T06:50:43;14.05;;;10.35;;
11394;SDS011;5753;54.402;10.220;2023-05-14T06:53:10;12.00;;;8.68;;
11394;SDS011;5753;54.402;10.220;2023-05-14T06:55:36;12.95;;;10.05;;
11394;SDS011;5753;54.402;10.220;2023-05-14T06:58:04;12.05;;;9.27;;
11394;SDS011;5753;54.402;10.220;2023-05-14T07:00:31;11.52;;;9.10;;
11394;SDS011;5753;54.402;10.220;2023-05-14T07:02:57;9.35;;;8.27;;
11394;SDS011;5753;54.402;10.220;2023-05-14T07:05:23;10.80;;;9.77;;
11394;SDS011;5753;54.402;10.220;2023-05-14T07:07:50;10.27;;;9.30;;
11394;SDS011;5753;54.402;10.220;2023-05-14T07:10:16;13.88;;;10.02;;
11394;SDS011;5753;54.402;10.220;2023-05-14T07:12:42;9.25;;;8.38;;
11394;SDS011;5753;54.402;10.220;2023-05-14T07:15:09;9.80;;;8.73;;
11394;SDS011;5753;54.402;10.220;2023-05-14T07:17:36;16.80;;;9.63;;
11394;SDS011;5753;54.402;10.220;2023-05-14T07:20:02;11.13;;;8.32;;
11394;SDS011;5753;54.402;10.220;2023-05-14T07:22:28;9.30;;;8.32;;
11394;SDS011;5753;54.402;10.220;2023-05-14T07:24:54;9.55;;;8.57;;
11394;SDS011;5753;54.402;10.220;2023-05-14T07:27:20;10.45;;;9.45;;
11394;SDS011;5753;54.402;10.220;2023-05-14T07:29:46;8.25;;;7.63;;
11394;SDS011;5753;54.402;10.220;2023-05-14T07:32:13;8.30;;;7.57;;
11394;SDS011;5753;54.402;10.220;2023-05-14T07:34:39;8.57;;;7.63;;
11394;SDS011;5753;54.402;10.220;2023-05-14T07:37:06;17.90;;;9.00;;
11394;SDS011;5753;54.402;10.220;2023-05-14T07:39:32;12.10;;;8.15;;
11394;SDS011;5753;54.402;10.220;2023-05-14T07:41:59;13.65;;;9.55;;
11394;SDS011;5753;54.402;10.220;2023-05-14T07:44:25;10.63;;;8.93;;
11394;SDS011;5753;54.402;10.220;2023-05-14T07:46:51;10.77;;;9.77;;
11394;SDS011;5753;54.402;10.220;2023-05-14T07:49:17;8.70;;;6.75;;
11394;SDS011;5753;54.402;10.220;2023-05-14T07:51:43;12.35;;;7.80;;
11394;SDS011;5753;54.402;10.220;2023-05-14T07:54:09;10.90;;;7.32;;
11394;SDS011;5753;54.402;10.220;2023-05-14T07:56:35;14.38;;;9.02;;
11394;SDS011;5753;54.402;10.220;2023-05-14T07:59:01;8.73;;;7.95;;
11394;SDS011;5753;54.402;10.220;2023-05-14T08:01:27;10.50;;;7.57;;
11394;SDS011;5753;54.402;10.220;2023-05-14T08:03:55;6.72;;;6.13;;
11394;SDS011;5753;54.402;10.220;2023-05-14T08:06:21;8.73;;;6.45;;
11394;SDS011;5753;54.402;10.220;2023-05-14T08:08:48;10.18;;;9.07;;
11394;SDS011;5753;54.402;10.220;2023-05-14T08:11:14;11.60;;;8.65;;
11394;SDS011;5753;54.402;10.220;2023-05-14T08:13:40;7.70;;;7.00;;
11394;SDS011;5753;54.402;10.220;2023-05-14T08:16:06;12.60;;;8.73;;
11394;SDS011;5753;54.402;10.220;2023-05-14T08:18:32;13.48;;;7.47;;
11394;SDS011;5753;54.402;10.220;2023-05-14T08:20:58;8.32;;;7.30;;
11394;SDS011;5753;54.402;10.220;2023-05-14T08:23:25;8.77;;;7.03;;
11394;SDS011;5753;54.402;10.220;2023-05-14T08:25:51;4.45;;;3.95;;
11394;SDS011;5753;54.402;10.220;2023-05-14T08:28:17;9.85;;;4.68;;
11394;SDS011;5753;54.402;10.220;2023-05-14T08:30:43;7.10;;;5.38;;
11394;SDS011;5753;54.402;10.220;2023-05-14T08:33:09;8.20;;;4.25;;
11394;SDS011;5753;54.402;10.220;2023-05-14T08:35:36;4.65;;;3.97;;
11394;SDS011;5753;54.402;10.220;2023-05-14T08:38:02;5.65;;;5.13;;
11394;SDS011;5753;54.402;10.220;2023-05-14T08:40:28;7.32;;;6.63;;
11394;SDS011;5753;54.402;10.220;2023-05-14T08:42:54;6.50;;;4.40;;
11394;SDS011;5753;54.402;10.220;2023-05-14T08:45:27;6.68;;;4.53;;
11394;SDS011;5753;54.402;10.220;2023-05-14T08:47:58;5.03;;;4.55;;
11394;SDS011;5753;54.402;10.220;2023-05-14T08:50:29;10.25;;;5.32;;
11394;SDS011;5753;54.402;10.220;2023-05-14T08:52:56;6.18;;;4.07;;
11394;SDS011;5753;54.402;10.220;2023-05-14T08:55:22;6.97;;;4.13;;
11394;SDS011;5753;54.402;10.220;2023-05-14T08:57:50;6.43;;;4.43;;
11394;SDS011;5753;54.402;10.220;2023-05-14T09:00:16;8.82;;;5.97;;
11394;SDS011;5753;54.402;10.220;2023-05-14T09:02:43;12.82;;;4.88;;
11394;SDS011;5753;54.402;10.220;2023-05-14T09:05:10;8.98;;;7.47;;
11394;SDS011;5753;54.402;10.220;2023-05-14T09:07:37;16.80;;;8.10;;
11394;SDS011;5753;54.402;10.220;2023-05-14T09:10:03;10.40;;;8.98;;
11394;SDS011;5753;54.402;10.220;2023-05-14T09:12:30;9.80;;;8.70;;
11394;SDS011;5753;54.402;10.220;2023-05-14T09:14:56;16.67;;;11.70;;
11394;SDS011;5753;54.402;10.220;2023-05-14T09:17:23;10.60;;;9.43;;
11394;SDS011;5753;54.402;10.220;2023-05-14T09:19:51;11.43;;;9.50;;
11394;SDS011;5753;54.402;10.220;2023-05-14T09:22:17;12.85;;;9.75;;
11394;SDS011;5753;54.402;10.220;2023-05-14T09:24:44;11.40;;;8.95;;
11394;SDS011;5753;54.402;10.220;2023-05-14T09:27:25;10.10;;;9.10;;
11394;SDS011;5753;54.402;10.220;2023-05-14T09:29:55;12.65;;;9.98;;
11394;SDS011;5753;54.402;10.220;2023-05-14T09:32:33;12.50;;;9.45;;
11394;SDS011;5753;54.402;10.220;2023-05-14T09:35:11;10.27;;;8.32;;
11394;SDS011;5753;54.402;10.220;2023-05-14T09:37:43;10.55;;;9.00;;
11394;SDS011;5753;54.402;10.220;2023-05-14T09:40:11;9.73;;;8.15;;
11394;SDS011;5753;54.402;10.220;2023-05-14T09:42:38;9.43;;;8.43;;
11394;SDS011;5753;54.402;10.220;2023-05-14T09:45:05;10.43;;;7.40;;
11394;SDS011;5753;54.402;10.220;2023-05-14T09:47:35;9.10;;;7.90;;
11394;SDS011;5753;54.402;10.220;2023-05-14T09:50:04;12.82;;;8.48;;
11394;SDS011;5753;54.402;10.220;2023-05-14T09:52:31;13.15;;;7.35;;
11394;SDS011;5753;54.402;10.220;2023-05-14T09:54:57;10.52;;;9.50;;
11394;SDS011;5753;54.402;10.220;2023-05-14T09:57:24;10.52;;;9.02;;
11394;SDS011;5753;54.402;10.220;2023-05-14T09:59:51;10.80;;;9.35;;
11394;SDS011;5753;54.402;10.220;2023-05-14T10:02:38;8.70;;;7.90;;
11394;SDS011;5753;54.402;10.220;2023-05-14T10:05:06;7.97;;;7.28;;
11394;SDS011;5753;54.402;10.220;2023-05-14T10:07:40;9.90;;;6.93;;
11394;SDS011;5753;54.402;10.220;2023-05-14T10:10:12;7.55;;;6.55;;
11394;SDS011;5753;54.402;10.220;2023-05-14T10:12:42;8.52;;;6.55;;
11394;SDS011;5753;54.402;10.220;2023-05-14T10:15:22;8.52;;;6.15;;
11394;SDS011;5753;54.402;10.220;2023-05-14T10:17:58;7.22;;;5.47;;
11394;SDS011;5753;54.402;10.220;2023-05-14T10:20:29;8.35;;;6.40;;
11394;SDS011;5753;54.402;10.220;2023-05-14T10:22:57;7.20;;;6.20;;
11394;SDS011;5753;54.402;10.220;2023-05-14T10:25:23;6.72;;;5.30;;
11394;SDS011;5753;54.402;10.220;2023-05-14T10:27:49;7.00;;;6.22;;
11394;SDS011;5753;54.402;10.220;2023-05-14T10:30:16;5.85;;;5.28;;
11394;SDS011;5753;54.402;10.220;2023-05-14T10:32:48;6.30;;;5.70;;
11394;SDS011;5753;54.402;10.220;2023-05-14T10:35:31;7.23;;;5.57;;
11394;SDS011;5753;54.402;10.220;2023-05-14T10:38:15;6.47;;;4.65;;
11394;SDS011;5753;54.402;10.220;2023-05-14T10:40:41;6.75;;;6.03;;
11394;SDS011;5753;54.402;10.220;2023-05-14T10:43:07;5.60;;;5.07;;
11394;SDS011;5753;54.402;10.220;2023-05-14T10:45:35;5.45;;;4.95;;
11394;SDS011;5753;54.402;10.220;2023-05-14T10:48:01;7.45;;;6.25;;
11394;SDS011;5753;54.402;10.220;2023-05-14T10:50:28;9.27;;;4.97;;
11394;SDS011;5753;54.402;10.220;2023-05-14T10:52:54;9.38;;;4.53;;
11394;SDS011;5753;54.402;10.220;2023-05-14T10:55:21;6.30;;;4.25;;
11394;SDS011;5753;54.402;10.220;2023-05-14T10:57:47;5.60;;;5.05;;
11394;SDS011;5753;54.402;10.220;2023-05-14T11:00:14;6.35;;;5.07;;
11394;SDS011;5753;54.402;10.220;2023-05-14T11:02:44;9.57;;;6.07;;
11394;SDS011;5753;54.402;10.220;2023-05-14T11:05:11;5.03;;;4.63;;
11394;SDS011;5753;54.402;10.220;2023-05-14T11:07:41;10.20;;;5.45;;
11394;SDS011;5753;54.402;10.220;2023-05-14T11:10:13;9.75;;;5.63;;
11394;SDS011;5753;54.402;10.220;2023-05-14T11:12:44;8.60;;;6.25;;
11394;SDS011;5753;54.402;10.220;2023-05-14T11:15:15;11.15;;;5.57;;
11394;SDS011;5753;54.402;10.220;2023-05-14T11:17:43;6.43;;;5.15;;
11394;SDS011;5753;54.402;10.220;2023-05-14T11:20:11;8.07;;;4.68;;
11394;SDS011;5753;54.402;10.220;2023-05-14T11:22:38;9.00;;;6.43;;
11394;SDS011;5753;54.402;10.220;2023-05-14T11:25:06;10.35;;;6.43;;
11394;SDS011;5753;54.402;10.220;2023-05-14T11:27:33;9.75;;;5.85;;
11394;SDS011;5753;54.402;10.220;2023-05-14T11:30:01;6.18;;;5.13;;
11394;SDS011;5753;54.402;10.220;2023-05-14T11:32:28;9.27;;;7.10;;
11394;SDS011;5753;54.402;10.220;2023-05-14T11:34:56;8.55;;;7.50;;
11394;SDS011;5753;54.402;10.220;2023-05-14T11:37:23;11.82;;;8.70;;
11394;SDS011;5753;54.402;10.220;2023-05-14T11:39:52;12.55;;;11.20;;
11394;SDS011;5753;54.402;10.220;2023-05-14T11:42:20;14.45;;;8.88;;
11394;SDS011;5753;54.402;10.220;2023-05-14T11:44:46;10.20;;;8.75;;
11394;SDS011;5753;54.402;10.220;2023-05-14T11:47:15;13.95;;;8.18;;
11394;SDS011;5753;54.402;10.220;2023-05-14T11:49:43;10.10;;;6.85;;
11394;SDS011;5753;54.402;10.220;2023-05-14T11:52:10;10.38;;;7.40;;
11394;SDS011;5753;54.402;10.220;2023-05-14T11:54:43;7.90;;;6.80;;
11394;SDS011;5753;54.402;10.220;2023-05-14T11:57:18;8.75;;;7.57;;
11394;SDS011;5753;54.402;10.220;2023-05-14T11:59:46;7.63;;;5.78;;
11394;SDS011;5753;54.402;10.220;2023-05-14T12:02:14;5.10;;;4.60;;
11394;SDS011;5753;54.402;10.220;2023-05-14T12:04:42;8.32;;;5.60;;
11394;SDS011;5753;54.402;10.220;2023-05-14T12:07:12;5.90;;;5.32;;
11394;SDS011;5753;54.402;10.220;2023-05-14T12:09:41;5.25;;;4.05;;
11394;SDS011;5753;54.402;10.220;2023-05-14T12:12:13;5.43;;;4.40;;
11394;SDS011;5753;54.402;10.220;2023-05-14T12:14:46;5.57;;;4.35;;
11394;SDS011;5753;54.402;10.220;2023-05-14T12:17:17;7.93;;;5.15;;
11394;SDS011;5753;54.402;10.220;2023-05-14T12:19:49;7.35;;;5.40;;
11394;SDS011;5753;54.402;10.220;2023-05-14T12:22:19;4.97;;;4.57;;
11394;SDS011;5753;54.402;10.220;2023-05-14T12:24:55;4.97;;;3.97;;
11394;SDS011;5753;54.402;10.220;2023-05-14T12:27:26;11.73;;;4.53;;
11394;SDS011;5753;54.402;10.220;2023-05-14T12:30:00;5.03;;;3.15;;
11394;SDS011;5753;54.402;10.220;2023-05-14T12:32:31;4.05;;;3.35;;
11394;SDS011;5753;54.402;10.220;2023-05-14T12:34:59;5.25;;;3.38;;
11394;SDS011;5753;54.402;10.220;2023-05-14T12:37:25;7.55;;;3.13;;
11394;SDS011;5753;54.402;10.220;2023-05-14T12:39:52;5.22;;;4.72;;
11394;SDS011;5753;54.402;10.220;2023-05-14T12:42:18;6.50;;;3.88;;
11394;SDS011;5753;54.402;10.220;2023-05-14T12:44:45;6.70;;;5.13;;
11394;SDS011;5753;54.402;10.220;2023-05-14T12:47:11;5.50;;;3.00;;
11394;SDS011;5753;54.402;10.220;2023-05-14T12:49:37;4.07;;;3.42;;
11394;SDS011;5753;54.402;10.220;2023-05-14T12:52:03;5.25;;;3.95;;
11394;SDS011;5753;54.402;10.220;2023-05-14T12:54:29;9.35;;;4.30;;
11394;SDS011;5753;54.402;10.220;2023-05-14T12:56:56;7.43;;;4.25;;
11394;SDS011;5753;54.402;10.220;2023-05-14T12:59:22;3.42;;;3.22;;
11394;SDS011;5753;54.402;10.220;2023-05-14T13:01:49;4.05;;;3.72;;
11394;SDS011;5753;54.402;10.220;2023-05-14T13:04:15;4.75;;;3.92;;
11394;SDS011;5753;54.402;10.220;2023-05-14T13:06:41;4.78;;;3.88;;
11394;SDS011;5753;54.402;10.220;2023-05-14T13:09:07;4.60;;;4.20;;
11394;SDS011;5753;54.402;10.220;2023-05-14T13:11:33;4.97;;;3.65;;
11394;SDS011;5753;54.402;10.220;2023-05-14T13:13:59;6.15;;;5.50;;
11394;SDS011;5753;54.402;10.220;2023-05-14T13:16:26;5.20;;;3.67;;
11394;SDS011;5753;54.402;10.220;2023-05-14T13:18:53;6.57;;;5.15;;
11394;SDS011;5753;54.402;10.220;2023-05-14T13:21:19;3.42;;;3.20;;
11394;SDS011;5753;54.402;10.220;2023-05-14T13:23:46;4.70;;;3.78;;
11394;SDS011;5753;54.402;10.220;2023-05-14T13:26:13;3.83;;;3.53;;
11394;SDS011;5753;54.402;10.220;2023-05-14T13:28:39;9.80;;;3.17;;
11394;SDS011;5753;54.402;10.220;2023-05-14T13:31:06;5.20;;;3.50;;
11394;SDS011;5753;54.402;10.220;2023-05-14T13:33:34;4.20;;;3.78;;
11394;SDS011;5753;54.402;10.220;2023-05-14T13:36:02;6.05;;;4.07;;
11394;SDS011;5753;54.402;10.220;2023-05-14T13:38:29;6.00;;;3.63;;
11394;SDS011;5753;54.402;10.220;2023-05-14T13:40:55;3.47;;;3.17;;
11394;SDS011;5753;54.402;10.220;2023-05-14T13:43:25;5.80;;;5.30;;
11394;SDS011;5753;54.402;10.220;2023-05-14T13:45:55;8.57;;;4.15;;
11394;SDS011;5753;54.402;10.220;2023-05-14T13:48:22;7.40;;;3.85;;
11394;SDS011;5753;54.402;10.220;2023-05-14T13:50:48;3.33;;;3.03;;
11394;SDS011;5753;54.402;10.220;2023-05-14T13:53:16;6.72;;;3.60;;
11394;SDS011;5753;54.402;10.220;2023-05-14T13:55:43;8.90;;;3.70;;
11394;SDS011;5753;54.402;10.220;2023-05-14T13:58:09;10.13;;;3.50;;
11394;SDS011;5753;54.402;10.220;2023-05-14T14:00:35;3.60;;;2.70;;
11394;SDS011;5753;54.402;10.220;2023-05-14T14:03:01;5.93;;;4.32;;
11394;SDS011;5753;54.402;10.220;2023-05-14T14:05:28;6.82;;;3.90;;
11394;SDS011;5753;54.402;10.220;2023-05-14T14:07:55;4.18;;;3.88;;
11394;SDS011;5753;54.402;10.220;2023-05-14T14:10:21;4.28;;;2.97;;
11394;SDS011;5753;54.402;10.220;2023-05-14T14:12:48;5.10;;;4.57;;
11394;SDS011;5753;54.402;10.220;2023-05-14T14:15:14;7.38;;;4.78;;
11394;SDS011;5753;54.402;10.220;2023-05-14T14:17:40;4.22;;;3.53;;
11394;SDS011;5753;54.402;10.220;2023-05-14T14:20:06;5.30;;;3.50;;
11394;SDS011;5753;54.402;10.220;2023-05-14T14:22:33;5.75;;;3.72;;
11394;SDS011;5753;54.402;10.220;2023-05-14T14:24:59;6.10;;;3.75;;
11394;SDS011;5753;54.402;10.220;2023-05-14T14:27:26;5.50;;;5.03;;
11394;SDS011;5753;54.402;10.220;2023-05-14T14:29:52;6.63;;;5.05;;
11394;SDS011;5753;54.402;10.220;2023-05-14T14:32:18;8.38;;;5.90;;
11394;SDS011;5753;54.402;10.220;2023-05-14T14:34:44;5.85;;;4.18;;
11394;SDS011;5753;54.402;10.220;2023-05-14T14:37:10;3.88;;;3.63;;